Friday, April 18, 2014
13:15 UTC
  |  Log In   |  Register Free
Airport Search:

Clayton Municipal Airport
(11A)

Clayton Municipal Airport Diagram
No Airport Diagram Available

FAA data valid effective April 3, 2014 until May 29, 2014 (unless otherwise noted).

 
 
 
 
 
 
 
 
 
 
 
 
 
 

Current Aviation Weather for Clayton Municipal Airport (11A)

The most recent METAR observation for KEUF was updated at: 1258 UTC
METAR Summary (Translated METAR)
KEUF
181258Z AUTO 04006KT 3SM BR SCT008 BKN012 OVC050 12/11 A3020 RMK AO2 SLP224 P0014 T01220111 PWINO
KLSF
(24.2 nm NE from KEUF)
181258Z AUTO VRB04KT 5SM RA BR FEW012 OVC042 12/10 A3023 RMK AO2 CIG 035 RWY15 SLP239 P0016 T01170104
TAF Summary (Translated TAF)
KLSF
(24.2 nm NE from KEUF)
1812/1915 06009KT 8000 -RA FEW012 OVC040 520105 QNH3002INS BECMG 1814/1815 04012G18KT 4800 RA OVC012 530106 QNH2992INS TEMPO 1815/1818 OVC008 BECMG 1912/1913 02010G15KT 9000 -RA SCT015 BKN030 QNH2980INS TX13/1820Z TN08/1909Z AMD 181253
KCSG
(35.3 nm NE from KEUF)
181131Z 1812/1912 05012KT 4SM -SHRA OVC040 FM181400 05010G18KT 4SM -SHRA BKN025 FM181500 05014G24KT 3SM SHRA BR OVC008 FM190200 03018G28KT 2SM SHRA BR OVC008
  Airport Weather Conditions for 11A

Current weather conditions are
not available for 11A


The nearest NOAA weather station
is at EUF, (18.6 nm NE from 11A)
  
 Current Weather at EUF
54° F
Fog/Mist
Variable winds at 4.6 mph
EUF NOAA Radar

Pressure: 30.21 in
Humidity: 93%
Wind: Variable at 4.6 MPH (4 KT)
Dew Point: 52.0°F
Visibility: 5.00 mi


Airport Weather Forecast for 11A

Translated METAR and TAF for KEUF
Translated METAR for KEUF (1315 UTC 18 April 2014)
found at http://aviationweather.gov/adds/metars/
 
METAR text: KEUF 181258Z AUTO 04006KT 3SM BR SCT008 BKN012 OVC050 12/11 A3020 RMK AO2 SLP224 P0014 T01220111 PWINO
Conditions at: KEUF (EUFAULA , AL, US) observed 1258 UTC 18 April 2014
Temperature: 12.2°C (54°F)
Dewpoint: 11.1°C (52°F) [RH = 93%]
Pressure (altimeter): 30.20 inches Hg (1022.8 mb)
[Sea-level pressure: 1022.4 mb]
Winds: from the NE (40 degrees) at 7 MPH (6 knots; 3.1 m/s)
Visibility: 3 miles (5 km)
Ceiling: 1200 feet AGL
Clouds: scattered clouds at 800 feet AGL
broken clouds at 1200 feet AGL
overcast cloud deck at 5000 feet AGL
Weather: BR  (mist)
Translated TAF for KEUF

There is no translated TAF available for this airport

Find All Airport Services Find A Hotel Find A Rental Car Find A Golf Course Find A Restaurant $100 Hamburger



FBO's on the Field
FBO Company Facility Photos Services Transportation Aviation Fuel Prices: Prices include tax
Catering Weather Repair Courtesy Rental Type 100LL JetA JetA+ MOGAS 8087
 
Add another FBO Facility Photos Catering Weather Repair Courtesy Rental Type 100LL JetA JetA+ MOGAS 8087
Services Transportation Aviation Fuel Prices: Prices include tax
There are no FBO's currently reporting fuel at 11A. List your FBO now


GlobalAir.com Airport Resource Center model-print
model-print
model-print
model-print